createdAt,value
2023-03-05T00:01:07.796Z,12.93
2023-03-05T00:03:36.492Z,12.17
2023-03-05T00:06:05.782Z,14.27
2023-03-05T00:08:35.545Z,14.07
2023-03-05T00:11:05.324Z,11.93
2023-03-05T00:13:34.511Z,14.67
2023-03-05T00:16:05.078Z,14.67
2023-03-05T00:18:33.817Z,14.67
2023-03-05T00:21:02.181Z,11.82
2023-03-05T00:23:30.395Z,14.68
2023-03-05T00:26:03.575Z,11.07
2023-03-05T00:28:31.846Z,11.47
2023-03-05T00:31:02.115Z,10.07
2023-03-05T00:33:30.528Z,11.60
2023-03-05T00:36:01.754Z,4.83
2023-03-05T00:38:29.945Z,11.10
2023-03-05T00:40:59.510Z,10.07
2023-03-05T00:43:27.874Z,13.27
2023-03-05T00:45:56.496Z,16.85
2023-03-05T00:48:25.513Z,11.70
2023-03-05T00:50:54.106Z,7.45
2023-03-05T00:53:22.356Z,11.60
2023-03-05T00:55:51.455Z,12.35
2023-03-05T00:58:21.352Z,10.87
2023-03-05T01:00:50.626Z,8.20
2023-03-05T01:03:18.866Z,12.47
2023-03-05T01:05:47.192Z,12.85
2023-03-05T01:08:15.988Z,12.03
2023-03-05T01:10:44.274Z,9.55
2023-03-05T01:13:12.731Z,15.65
2023-03-05T01:15:42.458Z,10.73
2023-03-05T01:18:11.087Z,6.70
2023-03-05T01:20:39.344Z,11.30
2023-03-05T01:23:07.909Z,10.80
2023-03-05T01:25:36.474Z,9.20
2023-03-05T01:28:05.169Z,9.60
2023-03-05T01:30:34.444Z,7.17
2023-03-05T01:33:04.165Z,10.63
2023-03-05T01:35:32.436Z,7.20
2023-03-05T01:38:00.754Z,6.70
2023-03-05T01:40:31.134Z,8.97
2023-03-05T01:43:02.368Z,6.40
2023-03-05T01:45:33.372Z,11.10
2023-03-05T01:48:03.151Z,8.37
2023-03-05T01:50:32.243Z,5.00
2023-03-05T01:53:03.502Z,5.53
2023-03-05T01:55:33.480Z,6.80
2023-03-05T01:58:06.437Z,6.77
2023-03-05T02:00:38.997Z,7.60
2023-03-05T02:03:11.124Z,9.67
2023-03-05T02:05:41.234Z,6.70
2023-03-05T02:08:12.360Z,5.93
2023-03-05T02:10:43.240Z,8.37
2023-03-05T02:13:15.502Z,4.00
2023-03-05T02:15:44.231Z,5.70
2023-03-05T02:18:13.884Z,6.77
2023-03-05T02:20:47.418Z,9.97
2023-03-05T02:23:17.769Z,6.97
2023-03-05T02:25:46.364Z,5.60
2023-03-05T02:28:19.884Z,6.20
2023-03-05T02:30:48.837Z,8.47
2023-03-05T02:33:18.362Z,5.57
2023-03-05T02:35:47.287Z,9.33
2023-03-05T02:38:20.269Z,8.07
2023-03-05T02:40:48.582Z,5.40
2023-03-05T02:43:18.655Z,7.43
2023-03-05T02:45:47.147Z,6.70
2023-03-05T02:48:15.504Z,6.03
2023-03-05T02:50:44.896Z,9.57
2023-03-05T02:53:13.280Z,6.30
2023-03-05T02:55:43.043Z,5.10
2023-03-05T02:58:11.230Z,7.57
2023-03-05T03:00:39.615Z,3.43
2023-03-05T03:03:07.838Z,10.20
2023-03-05T03:05:36.951Z,8.37
2023-03-05T03:08:05.504Z,7.23
2023-03-05T03:10:34.848Z,8.63
2023-03-05T03:13:04.451Z,7.10
2023-03-05T03:15:32.753Z,7.43
2023-03-05T03:18:01.012Z,6.17
2023-03-05T03:20:29.209Z,4.77
2023-03-05T03:22:57.345Z,7.37
2023-03-05T03:25:25.859Z,4.47
2023-03-05T03:27:54.113Z,7.77
2023-03-05T03:30:23.813Z,6.63
2023-03-05T03:32:52.908Z,7.87
2023-03-05T03:35:21.343Z,6.67
2023-03-05T03:37:49.739Z,7.83
2023-03-05T03:40:18.408Z,8.37
2023-03-05T03:42:46.701Z,5.77
2023-03-05T03:45:15.098Z,5.57
2023-03-05T03:47:44.698Z,6.43
2023-03-05T03:50:13.596Z,6.63
2023-03-05T03:52:41.879Z,3.23
2023-03-05T03:55:11.409Z,8.60
2023-03-05T03:57:39.599Z,4.70
2023-03-05T04:00:11.138Z,5.83
2023-03-05T04:02:44.573Z,4.93
2023-03-05T04:05:13.017Z,5.57
2023-03-05T04:07:41.225Z,3.03
2023-03-05T04:10:10.551Z,2.80
2023-03-05T04:12:38.918Z,4.87
2023-03-05T04:15:08.362Z,4.77
2023-03-05T04:17:36.551Z,4.70
2023-03-05T04:20:08.923Z,7.43
2023-03-05T04:22:37.531Z,5.67
2023-03-05T04:25:06.708Z,5.43
2023-03-05T04:27:36.235Z,9.97
2023-03-05T04:30:05.708Z,4.90
2023-03-05T04:32:34.061Z,7.50
2023-03-05T04:35:02.293Z,4.90
2023-03-05T04:37:31.894Z,5.83
2023-03-05T04:40:00.244Z,7.13
2023-03-05T04:42:28.367Z,6.30
2023-03-05T04:44:56.550Z,5.43
2023-03-05T04:47:24.732Z,6.50
2023-03-05T04:49:53.059Z,3.93
2023-03-05T04:52:21.164Z,4.07
2023-03-05T04:54:50.719Z,3.57
2023-03-05T04:57:19.513Z,9.27
2023-03-05T04:59:47.887Z,4.80
2023-03-05T05:02:16.338Z,6.43
2023-03-05T05:04:45.234Z,6.73
2023-03-05T05:07:13.667Z,7.83
2023-03-05T05:09:42.311Z,4.17
2023-03-05T05:12:11.967Z,4.77
2023-03-05T05:14:40.308Z,4.63
2023-03-05T05:17:08.674Z,7.93
2023-03-05T05:19:37.113Z,5.17
2023-03-05T05:22:05.307Z,4.80
2023-03-05T05:24:33.454Z,6.80
2023-03-05T05:27:01.647Z,5.43
2023-03-05T05:29:31.209Z,8.30
2023-03-05T05:31:59.439Z,5.83
2023-03-05T05:34:27.716Z,5.73
2023-03-05T05:36:55.859Z,5.30
2023-03-05T05:39:24.070Z,8.77
2023-03-05T05:41:53.094Z,4.57
2023-03-05T05:44:21.429Z,6.17
2023-03-05T05:46:51.038Z,6.80
2023-03-05T05:49:19.282Z,7.33
2023-03-05T05:51:47.491Z,5.47
2023-03-05T05:54:16.769Z,2.80
2023-03-05T05:56:44.939Z,6.37
2023-03-05T05:59:13.285Z,6.97
2023-03-05T06:01:41.760Z,6.43
2023-03-05T06:04:11.306Z,6.57
2023-03-05T06:06:39.442Z,7.97
2023-03-05T06:09:07.728Z,4.50
2023-03-05T06:11:36.288Z,4.53
2023-03-05T06:14:04.762Z,6.07
2023-03-05T06:16:32.951Z,5.80
2023-03-05T06:19:04.454Z,4.63
2023-03-05T06:21:34.680Z,3.53
2023-03-05T06:24:02.817Z,5.43
2023-03-05T06:26:31.010Z,4.10
2023-03-05T06:28:59.238Z,7.03
2023-03-05T06:31:30.213Z,4.13
2023-03-05T06:34:01.192Z,7.53
2023-03-05T06:36:30.358Z,5.63
2023-03-05T06:39:00.884Z,3.73
2023-03-05T06:41:30.790Z,5.60
2023-03-05T06:44:02.324Z,5.83
2023-03-05T06:46:32.760Z,3.47
2023-03-05T06:49:04.358Z,5.83
2023-03-05T06:51:34.057Z,3.50
2023-03-05T06:54:06.671Z,4.30
2023-03-05T06:56:37.956Z,5.23
2023-03-05T06:59:07.089Z,4.93
2023-03-05T07:01:35.244Z,5.63
2023-03-05T07:04:04.343Z,6.47
2023-03-05T07:06:34.605Z,7.47
2023-03-05T07:09:05.969Z,8.33
2023-03-05T07:11:34.470Z,4.50
2023-03-05T07:14:03.186Z,4.20
2023-03-05T07:16:32.972Z,5.30
2023-03-05T07:19:03.793Z,7.97
2023-03-05T07:21:34.294Z,6.27
2023-03-05T07:24:05.826Z,4.50
2023-03-05T07:26:34.781Z,5.80
2023-03-05T07:29:03.756Z,4.83
2023-03-05T07:31:32.486Z,3.13
2023-03-05T07:34:02.254Z,4.30
2023-03-05T07:36:31.309Z,6.23
2023-03-05T07:38:59.426Z,3.73
2023-03-05T07:41:29.152Z,5.17
2023-03-05T07:43:57.684Z,2.97
2023-03-05T07:46:29.062Z,3.23
2023-03-05T07:48:57.334Z,4.20
2023-03-05T07:51:27.665Z,6.00
2023-03-05T07:53:58.622Z,5.07
2023-03-05T07:56:31.746Z,7.03
2023-03-05T07:59:00.161Z,7.43
2023-03-05T08:01:28.476Z,5.90
2023-03-05T08:03:56.757Z,4.15
2023-03-05T08:06:25.281Z,6.82
2023-03-05T08:08:53.532Z,5.88
2023-03-05T08:11:22.055Z,6.10
2023-03-05T08:13:51.917Z,3.13
2023-03-05T08:16:22.002Z,5.70
2023-03-05T08:18:50.617Z,8.50
2023-03-05T08:21:20.707Z,5.20
2023-03-05T08:23:49.498Z,5.72
2023-03-05T08:26:19.952Z,4.85
2023-03-05T08:28:48.186Z,3.05
2023-03-05T08:31:21.276Z,2.28
2023-03-05T08:33:51.094Z,3.47
2023-03-05T08:36:19.304Z,3.80
2023-03-05T08:38:48.515Z,5.47
2023-03-05T08:41:18.207Z,5.07
2023-03-05T08:43:46.472Z,4.07
2023-03-05T08:46:15.734Z,5.95
2023-03-05T08:48:45.857Z,3.58
2023-03-05T08:51:15.727Z,4.93
2023-03-05T08:53:44.869Z,3.58
2023-03-05T08:56:13.860Z,2.30
2023-03-05T08:58:42.132Z,6.28
2023-03-05T09:01:10.482Z,3.33
2023-03-05T09:03:38.828Z,5.10
2023-03-05T09:06:10.840Z,3.90
2023-03-05T09:08:39.479Z,4.80
2023-03-05T09:11:09.858Z,6.95
2023-03-05T09:13:38.281Z,4.20
2023-03-05T09:16:12.890Z,3.67
2023-03-05T09:18:41.362Z,3.65
2023-03-05T09:21:12.560Z,7.30
2023-03-05T09:23:41.703Z,4.07
2023-03-05T09:26:13.274Z,2.72
2023-03-05T09:28:41.910Z,3.38
2023-03-05T09:31:11.198Z,3.83
2023-03-05T09:33:40.239Z,4.80
2023-03-05T09:36:19.734Z,4.32
2023-03-05T09:38:47.994Z,3.63
2023-03-05T09:41:23.148Z,6.88
2023-03-05T09:43:59.712Z,5.45
2023-03-05T09:46:41.954Z,6.85
2023-03-05T09:49:19.065Z,4.20
2023-03-05T09:51:53.910Z,3.93
2023-03-05T09:54:26.080Z,5.28
2023-03-05T09:56:57.715Z,3.20
2023-03-05T09:59:32.915Z,4.35
2023-03-05T10:02:04.391Z,4.55
2023-03-05T10:04:45.711Z,2.05
2023-03-05T10:07:23.131Z,3.78
2023-03-05T10:09:57.217Z,1.98
2023-03-05T10:12:34.601Z,2.53
2023-03-05T10:15:03.683Z,4.55
2023-03-05T10:18:01.629Z,3.88
2023-03-05T10:20:49.850Z,2.90
2023-03-05T10:23:32.887Z,4.18
2023-03-05T10:26:13.324Z,6.32
2023-03-05T10:28:46.712Z,7.20
2023-03-05T10:31:36.247Z,5.25
2023-03-05T10:34:23.692Z,7.33
2023-03-05T10:37:12.278Z,4.47
2023-03-05T10:40:09.993Z,6.57
2023-03-05T10:42:46.531Z,6.53
2023-03-05T10:45:19.210Z,3.83
2023-03-05T10:47:52.672Z,5.43
2023-03-05T10:50:24.137Z,4.50
2023-03-05T10:53:01.596Z,4.50
2023-03-05T10:55:31.197Z,4.30
2023-03-05T10:57:59.615Z,4.90
2023-03-05T11:00:31.160Z,6.80
2023-03-05T11:03:02.173Z,6.30
2023-03-05T11:05:49.367Z,4.00
2023-03-05T11:08:30.883Z,5.53
2023-03-05T11:11:21.852Z,8.33
2023-03-05T11:13:56.581Z,3.87
2023-03-05T11:16:27.008Z,3.87
2023-03-05T11:19:20.430Z,7.37
2023-03-05T11:22:05.771Z,3.43
2023-03-05T11:24:34.846Z,2.38
2023-03-05T11:27:24.228Z,4.18
2023-03-05T11:29:53.036Z,3.35
2023-03-05T11:32:24.993Z,3.65
2023-03-05T11:34:54.837Z,3.88
2023-03-05T11:37:26.270Z,5.22
2023-03-05T11:40:17.388Z,4.07
2023-03-05T11:42:57.151Z,4.20
2023-03-05T11:45:27.001Z,4.40
2023-03-05T11:47:58.677Z,3.85
2023-03-05T11:50:32.020Z,3.63
2023-03-05T11:53:06.850Z,5.75
2023-03-05T11:55:41.409Z,3.83
2023-03-05T11:58:25.811Z,5.43
2023-03-05T12:00:54.509Z,7.95
2023-03-05T12:03:26.607Z,6.90
2023-03-05T12:05:58.507Z,5.53
2023-03-05T12:08:33.430Z,5.10
2023-03-05T12:11:07.425Z,4.53
2023-03-05T12:13:43.060Z,4.75
2023-03-05T12:16:24.313Z,6.15
2023-03-05T12:19:01.064Z,3.35
2023-03-05T12:21:34.949Z,4.43
2023-03-05T12:24:04.914Z,2.55
2023-03-05T12:26:56.129Z,5.40
2023-03-05T12:29:40.329Z,3.20
2023-03-05T12:32:51.638Z,5.10
2023-03-05T12:35:29.445Z,4.80
2023-03-05T12:38:30.062Z,3.92
2023-03-05T12:41:34.547Z,5.35
2023-03-05T12:44:23.748Z,2.55
2023-03-05T12:47:20.099Z,3.28
2023-03-05T12:49:49.846Z,3.55
2023-03-05T12:52:30.947Z,2.95
2023-03-05T12:55:17.140Z,4.40
2023-03-05T12:57:47.619Z,5.78
2023-03-05T13:00:21.687Z,6.97
2023-03-05T13:02:58.577Z,3.35
2023-03-05T13:05:30.155Z,4.03
2023-03-05T13:08:14.204Z,4.25
2023-03-05T13:10:44.960Z,2.97
2023-03-05T13:13:16.855Z,3.78
2023-03-05T13:15:48.072Z,4.72
2023-03-05T13:18:22.094Z,7.20
2023-03-05T13:21:02.470Z,3.58
2023-03-05T13:23:31.243Z,4.95
2023-03-05T13:26:15.252Z,4.10
2023-03-05T13:28:46.730Z,5.40
2023-03-05T13:31:18.132Z,3.25
2023-03-05T13:33:54.706Z,5.05
2023-03-05T13:36:25.516Z,3.63
2023-03-05T13:38:55.337Z,3.97
2023-03-05T13:41:25.204Z,3.22
2023-03-05T13:43:55.634Z,2.78
2023-03-05T13:46:30.435Z,3.17
2023-03-05T13:49:19.133Z,3.67
2023-03-05T13:51:49.929Z,6.22
2023-03-05T13:54:19.750Z,7.22
2023-03-05T13:56:56.545Z,4.13
2023-03-05T13:59:26.381Z,5.10
2023-03-05T14:02:00.345Z,3.88
2023-03-05T14:04:33.628Z,6.45
2023-03-05T14:07:05.142Z,4.10
2023-03-05T14:09:47.283Z,5.88
2023-03-05T14:12:28.381Z,2.17
2023-03-05T14:14:57.968Z,2.75
2023-03-05T14:17:39.001Z,3.08
2023-03-05T14:20:24.356Z,2.10
2023-03-05T14:22:56.801Z,5.68
2023-03-05T14:25:38.446Z,3.25
2023-03-05T14:28:09.124Z,1.63
2023-03-05T14:30:38.693Z,2.63
2023-03-05T14:33:07.158Z,2.17
2023-03-05T14:35:37.713Z,3.17
2023-03-05T14:38:08.324Z,2.03
2023-03-05T14:40:37.975Z,3.00
2023-03-05T14:43:07.538Z,3.30
2023-03-05T14:45:38.550Z,3.15
2023-03-05T14:48:09.154Z,2.40
2023-03-05T14:50:42.981Z,4.53
2023-03-05T14:53:16.710Z,3.78
2023-03-05T14:55:48.791Z,3.15
2023-03-05T14:58:20.283Z,2.13
2023-03-05T15:00:51.112Z,3.33
2023-03-05T15:03:21.459Z,3.45
2023-03-05T15:05:53.528Z,2.75
2023-03-05T15:08:23.663Z,3.25
2023-03-05T15:10:52.666Z,3.53
2023-03-05T15:13:21.780Z,3.65
2023-03-05T15:15:51.571Z,3.97
2023-03-05T15:18:22.355Z,5.17
2023-03-05T15:20:53.497Z,4.20
2023-03-05T15:23:22.327Z,4.40
2023-03-05T15:25:50.986Z,3.83
2023-03-05T15:28:27.545Z,1.95
2023-03-05T15:30:58.150Z,4.30
2023-03-05T15:33:28.748Z,4.17
2023-03-05T15:35:59.180Z,3.53
2023-03-05T15:38:27.631Z,2.17
2023-03-05T15:41:01.246Z,3.73
2023-03-05T15:43:30.610Z,3.87
2023-03-05T15:45:58.854Z,2.90
2023-03-05T15:48:27.333Z,2.37
2023-03-05T15:50:55.629Z,3.43
2023-03-05T15:53:25.340Z,2.97
2023-03-05T15:55:53.661Z,3.45
2023-03-05T15:58:22.092Z,2.80
2023-03-05T16:00:50.403Z,2.17
2023-03-05T16:03:18.729Z,3.27
2023-03-05T16:05:47.013Z,3.28
2023-03-05T16:08:15.427Z,4.15
2023-03-05T16:10:45.063Z,3.67
2023-03-05T16:13:16.004Z,2.38
2023-03-05T16:15:45.060Z,4.37
2023-03-05T16:18:18.842Z,3.70
2023-03-05T16:20:47.689Z,6.47
2023-03-05T16:23:15.972Z,4.90
2023-03-05T16:25:46.312Z,4.50
2023-03-05T16:28:15.196Z,3.60
2023-03-05T16:30:43.457Z,3.13
2023-03-05T16:33:11.862Z,3.20
2023-03-05T16:35:43.017Z,2.80
2023-03-05T16:38:11.374Z,5.77
2023-03-05T16:41:06.342Z,4.13
2023-03-05T16:43:30.259Z,3.30
2023-03-05T16:45:58.831Z,3.50
2023-03-05T16:48:27.115Z,4.90
2023-03-05T16:50:57.718Z,4.33
2023-03-05T16:53:26.263Z,5.27
2023-03-05T16:55:54.597Z,4.27
2023-03-05T16:58:22.902Z,3.93
2023-03-05T17:00:52.654Z,3.53
2023-03-05T17:03:21.032Z,5.60
2023-03-05T17:05:49.452Z,4.77
2023-03-05T17:08:19.386Z,7.90
2023-03-05T17:10:47.898Z,2.77
2023-03-05T17:13:16.279Z,4.05
2023-03-05T17:15:47.190Z,4.33
2023-03-05T17:18:17.233Z,2.47
2023-03-05T17:20:45.491Z,4.13
2023-03-05T17:23:14.015Z,5.47
2023-03-05T17:25:42.686Z,3.80
2023-03-05T17:28:11.264Z,4.93
2023-03-05T17:30:40.968Z,3.33
2023-03-05T17:33:09.899Z,4.03
2023-03-05T17:35:39.957Z,3.57
2023-03-05T17:38:10.986Z,3.10
2023-03-05T17:40:39.405Z,3.83
2023-03-05T17:43:07.795Z,3.80
2023-03-05T17:45:36.594Z,2.63
2023-03-05T17:48:05.715Z,4.93
2023-03-05T17:50:34.607Z,3.38
2023-03-05T17:53:04.415Z,3.57
2023-03-05T17:55:32.945Z,2.75
2023-03-05T17:58:01.269Z,4.47
2023-03-05T18:00:31.914Z,4.17
2023-03-05T18:03:02.098Z,5.53
2023-03-05T18:05:30.596Z,4.47
2023-03-05T18:08:00.414Z,5.00
2023-03-05T18:10:31.072Z,5.60
2023-03-05T18:12:59.865Z,3.60
2023-03-05T18:15:29.855Z,3.60
2023-03-05T18:17:58.588Z,3.80
2023-03-05T18:20:31.100Z,3.50
2023-03-05T18:23:00.414Z,2.97
2023-03-05T18:25:31.887Z,3.83
2023-03-05T18:28:01.120Z,5.20
2023-03-05T18:30:30.708Z,3.73
2023-03-05T18:32:59.659Z,3.43
2023-03-05T18:35:29.273Z,4.90
2023-03-05T18:37:58.857Z,5.63
2023-03-05T18:40:30.302Z,6.37
2023-03-05T18:43:01.272Z,6.47
2023-03-05T18:45:31.120Z,5.43
2023-03-05T18:47:59.523Z,7.10
2023-03-05T18:50:30.197Z,7.77
2023-03-05T18:52:58.782Z,3.60
2023-03-05T18:55:30.859Z,5.13
2023-03-05T18:57:59.427Z,5.63
2023-03-05T19:00:29.699Z,4.67
2023-03-05T19:03:03.534Z,4.37
2023-03-05T19:05:32.204Z,3.87
2023-03-05T19:08:01.158Z,4.07
2023-03-05T19:10:33.512Z,4.10
2023-03-05T19:13:15.751Z,4.57
2023-03-05T19:15:44.390Z,4.50
2023-03-05T19:18:13.209Z,3.17
2023-03-05T19:20:41.513Z,4.10
2023-03-05T19:23:09.949Z,3.83
2023-03-05T19:25:41.523Z,4.37
2023-03-05T19:28:10.011Z,4.73
2023-03-05T19:30:39.081Z,3.77
2023-03-05T19:33:07.364Z,4.27
2023-03-05T19:35:35.960Z,4.13
2023-03-05T19:38:04.373Z,3.83
2023-03-05T19:40:32.896Z,5.87
2023-03-05T19:43:02.624Z,7.30
2023-03-05T19:45:33.804Z,12.90
2023-03-05T19:48:02.214Z,6.20
2023-03-05T19:50:32.841Z,5.77
2023-03-05T19:53:01.941Z,7.87
2023-03-05T19:55:30.567Z,5.13
2023-03-05T19:57:59.297Z,3.43
2023-03-05T20:00:29.187Z,8.07
2023-03-05T20:02:58.253Z,7.17
2023-03-05T20:05:26.663Z,3.80
2023-03-05T20:07:55.252Z,4.13
2023-03-05T20:10:23.702Z,5.13
2023-03-05T20:12:52.117Z,5.70
2023-03-05T20:15:21.272Z,3.60
2023-03-05T20:17:53.482Z,3.60
2023-03-05T20:20:22.119Z,4.00
2023-03-05T20:22:50.488Z,4.07
2023-03-05T20:25:21.230Z,2.87
2023-03-05T20:27:49.433Z,4.67
2023-03-05T20:30:18.749Z,3.57
2023-03-05T20:32:46.985Z,3.73
2023-03-05T20:35:18.683Z,6.23
2023-03-05T20:38:00.120Z,3.53
2023-03-05T20:40:28.779Z,3.60
2023-03-05T20:42:57.090Z,5.83
2023-03-05T20:45:25.428Z,3.83
2023-03-05T20:47:53.668Z,3.03
2023-03-05T20:50:24.523Z,4.03
2023-03-05T20:52:52.797Z,2.63
2023-03-05T20:55:21.060Z,3.80
2023-03-05T20:57:49.631Z,2.83
2023-03-05T21:00:18.617Z,2.67
2023-03-05T21:02:46.896Z,4.23
2023-03-05T21:05:15.508Z,4.40
2023-03-05T21:07:45.244Z,3.83
2023-03-05T21:10:16.337Z,3.73
2023-03-05T21:12:44.806Z,5.43
2023-03-05T21:15:14.829Z,4.13
2023-03-05T21:17:43.981Z,3.67
2023-03-05T21:20:16.244Z,3.60
2023-03-05T21:22:45.997Z,2.60
2023-03-05T21:25:20.907Z,3.27
2023-03-05T21:27:50.863Z,3.63
2023-03-05T21:30:20.548Z,3.47
2023-03-05T21:32:50.030Z,4.73
2023-03-05T21:35:19.617Z,3.40
2023-03-05T21:37:49.719Z,2.77
2023-03-05T21:40:20.905Z,3.30
2023-03-05T21:42:49.355Z,5.07
2023-03-05T21:45:20.202Z,3.80
2023-03-05T21:47:49.521Z,3.63
2023-03-05T21:50:18.044Z,4.13
2023-03-05T21:52:46.409Z,5.30
2023-03-05T21:55:18.845Z,4.17
2023-03-05T21:57:47.648Z,3.70
2023-03-05T22:00:18.340Z,4.00
2023-03-05T22:02:47.050Z,2.67
2023-03-05T22:05:15.827Z,5.40
2023-03-05T22:07:44.744Z,2.80
2023-03-05T22:10:16.001Z,4.13
2023-03-05T22:12:54.363Z,2.97
2023-03-05T22:15:22.825Z,3.97
2023-03-05T22:17:51.207Z,7.10
2023-03-05T22:20:20.092Z,3.97
2023-03-05T22:22:48.577Z,5.20
2023-03-05T22:25:19.362Z,5.30
2023-03-05T22:27:47.654Z,4.07
2023-03-05T22:30:16.621Z,3.17
2023-03-05T22:32:44.995Z,3.53
2023-03-05T22:35:15.369Z,6.13
2023-03-05T22:37:44.595Z,2.90
2023-03-05T22:40:18.032Z,4.77
2023-03-05T22:42:46.508Z,4.83
2023-03-05T22:45:16.907Z,2.00
2023-03-05T22:47:49.146Z,2.97
2023-03-05T22:50:18.137Z,6.83
2023-03-05T22:52:46.398Z,3.23
2023-03-05T22:55:16.299Z,4.17
2023-03-05T22:57:46.718Z,2.40
2023-03-05T23:00:18.471Z,2.13
2023-03-05T23:02:47.571Z,3.20
2023-03-05T23:05:16.092Z,3.27
2023-03-05T23:07:45.525Z,3.20
2023-03-05T23:10:19.597Z,2.53
2023-03-05T23:12:54.012Z,5.73
2023-03-05T23:15:24.880Z,2.70
2023-03-05T23:17:53.448Z,3.67
2023-03-05T23:20:23.649Z,4.03
2023-03-05T23:22:53.671Z,4.70
2023-03-05T23:25:22.002Z,6.57
2023-03-05T23:27:52.185Z,4.40
2023-03-05T23:30:21.365Z,3.13
2023-03-05T23:32:52.116Z,6.50
2023-03-05T23:35:22.664Z,3.20
2023-03-05T23:37:51.001Z,4.00
2023-03-05T23:40:22.785Z,4.23
2023-03-05T23:42:52.879Z,4.27
2023-03-05T23:45:23.833Z,5.33
2023-03-05T23:47:53.154Z,3.83
2023-03-05T23:50:23.620Z,4.13
2023-03-05T23:52:54.002Z,3.60
2023-03-05T23:55:24.530Z,2.03
2023-03-05T23:57:55.049Z,2.50
